Main page
METAR-TAF:

METAR-TAF

Airports :

Xi'an Xianyang International Airport

Xi'an, China

latitude: 34-26N, longitude: 108-45E, elevation: 479 m

Current weather observation

The report was made 1 hour and 14 minutes ago, at 04:00 UTC
Wind 6 kt from the Northeast
Temperature 6°C
Humidity 65%
Pressure 1032 hPa
Visibility: 1300 m
Overcast at a height of 7000 ft
haze

METAR: ZLXY 240400Z 05003MPS 1300 R05L/1400N R05R/1400N HZ OVC070 06/00 Q1032 NOSIG

Time: 13:14 (05:14 UTC)

Forecast

The report was made 4 hours and 7 minutes ago, at 01:07 UTC
Forecast valid from 24 at 00 UTC to 24 at 24 UTC
Wind 6 kt from the East/Northeast
Visibility: 1200 m
Overcast at a height of 5000 ft
mist
Becoming
from 24 at 03 UTC to 24 at 04 UTC
light rain
Temporary
from 24 at 12 UTC to 24 at 18 UTC
Visibility: 0700 m
light rain, snow, fog
Becoming
from 24 at 18 UTC to 24 at 19 UTC
mist

TAF: ZLXY 240107Z 2400/2424 06003MPS 1200 BR OVC050 TX04/2407Z TN00/2422Z BECMG 2403/2404 -RA TEMPO 2412/2418 0700 -RASN FG BECMG 2418/2419 BR

Weather observations and forecasts of more than 4000 airports (METAR and TAF reports).

The available stations are represented by yellow and red dots on the map.

Hover mouse over dot to see the name of the station.

Then click to see weather observations and forecasts.

To change the map : click on the green buttons with a black cross to zoom in, on the green button with a dash to zoom out, or on the green arrows for adjacent maps.


METAR-TAF: